sensor_id;sensor_type;location;lat;lon;timestamp;pressure;altitude;pressure_sealevel;temperature;humidity
66385;BME280;53426;55.872;37.462;2023-05-19T00:00:20;99877.38;;;15.43;69.89
66385;BME280;53426;55.872;37.462;2023-05-19T00:02:47;99791.53;;;14.94;69.74
66385;BME280;53426;55.872;37.462;2023-05-19T00:05:13;99878.50;;;15.40;69.58
66385;BME280;53426;55.872;37.462;2023-05-19T00:07:43;99867.78;;;15.32;69.00
66385;BME280;53426;55.872;37.462;2023-05-19T00:10:11;99877.22;;;15.27;68.95
66385;BME280;53426;55.872;37.462;2023-05-19T00:12:37;99868.66;;;15.23;68.86
66385;BME280;53426;55.872;37.462;2023-05-19T00:15:03;99888.66;;;15.37;68.92
66385;BME280;53426;55.872;37.462;2023-05-19T00:17:33;99880.09;;;15.33;68.69
66385;BME280;53426;55.872;37.462;2023-05-19T00:19:59;99891.47;;;15.35;69.00
66385;BME280;53426;55.872;37.462;2023-05-19T00:22:26;99879.03;;;15.26;69.71
66385;BME280;53426;55.872;37.462;2023-05-19T00:24:52;99880.88;;;15.26;69.06
66385;BME280;53426;55.872;37.462;2023-05-19T00:27:18;99894.75;;;15.29;69.00
66385;BME280;53426;55.872;37.462;2023-05-19T00:29:44;99897.84;;;15.25;69.58
66385;BME280;53426;55.872;37.462;2023-05-19T00:32:10;99896.09;;;15.16;69.53
66385;BME280;53426;55.872;37.462;2023-05-19T00:34:36;99905.09;;;15.15;69.71
66385;BME280;53426;55.872;37.462;2023-05-19T00:37:02;99888.56;;;15.01;69.83
66385;BME280;53426;55.872;37.462;2023-05-19T00:39:28;99878.69;;;14.94;69.76
66385;BME280;53426;55.872;37.462;2023-05-19T00:41:54;99908.88;;;15.12;70.10
66385;BME280;53426;55.872;37.462;2023-05-19T00:44:20;99911.16;;;15.07;70.73
66385;BME280;53426;55.872;37.462;2023-05-19T00:46:46;99917.47;;;15.06;70.08
66385;BME280;53426;55.872;37.462;2023-05-19T00:49:11;99914.13;;;15.04;69.90
66385;BME280;53426;55.872;37.462;2023-05-19T00:51:37;99920.63;;;14.92;70.11
66385;BME280;53426;55.872;37.462;2023-05-19T00:54:05;99925.44;;;14.79;70.53
66385;BME280;53426;55.872;37.462;2023-05-19T00:56:31;99921.00;;;14.70;70.81
66385;BME280;53426;55.872;37.462;2023-05-19T00:58:59;99916.16;;;14.55;70.69
66385;BME280;53426;55.872;37.462;2023-05-19T01:01:26;99923.59;;;14.42;71.76
66385;BME280;53426;55.872;37.462;2023-05-19T01:03:52;99926.84;;;14.27;71.39
66385;BME280;53426;55.872;37.462;2023-05-19T01:06:21;99924.72;;;14.30;71.39
66385;BME280;53426;55.872;37.462;2023-05-19T01:08:50;99925.00;;;14.27;71.37
66385;BME280;53426;55.872;37.462;2023-05-19T01:11:17;99928.25;;;14.21;71.78
66385;BME280;53426;55.872;37.462;2023-05-19T01:13:43;99912.41;;;14.10;72.11
66385;BME280;53426;55.872;37.462;2023-05-19T01:16:17;99938.47;;;14.16;71.85
66385;BME280;53426;55.872;37.462;2023-05-19T01:21:45;99954.44;;;13.97;70.12
66385;BME280;53426;55.872;37.462;2023-05-19T01:24:51;99953.91;;;13.74;69.03
66385;BME280;53426;55.872;37.462;2023-05-19T01:27:59;99957.53;;;13.63;68.90
66385;BME280;53426;55.872;37.462;2023-05-19T01:30:40;99968.00;;;13.55;69.00
66385;BME280;53426;55.872;37.462;2023-05-19T01:33:09;99976.53;;;13.49;69.72
66385;BME280;53426;55.872;37.462;2023-05-19T01:35:40;99964.31;;;13.37;68.63
66385;BME280;53426;55.872;37.462;2023-05-19T01:38:09;99970.91;;;13.43;69.06
66385;BME280;53426;55.872;37.462;2023-05-19T01:40:36;99965.84;;;13.30;68.99
66385;BME280;53426;55.872;37.462;2023-05-19T01:43:03;99949.78;;;13.01;68.30
66385;BME280;53426;55.872;37.462;2023-05-19T01:45:32;99986.03;;;13.02;68.86
66385;BME280;53426;55.872;37.462;2023-05-19T01:48:00;99987.84;;;13.02;68.23
66385;BME280;53426;55.872;37.462;2023-05-19T01:50:27;99986.66;;;12.94;67.82
66385;BME280;53426;55.872;37.462;2023-05-19T01:52:53;99970.75;;;12.74;66.65
66385;BME280;53426;55.872;37.462;2023-05-19T01:55:20;99990.53;;;12.60;67.63
66385;BME280;53426;55.872;37.462;2023-05-19T01:58:12;99982.88;;;12.67;67.37
66385;BME280;53426;55.872;37.462;2023-05-19T02:11:26;99969.06;;;12.42;68.06
66385;BME280;53426;55.872;37.462;2023-05-19T02:13:55;99976.28;;;12.40;66.99
66385;BME280;53426;55.872;37.462;2023-05-19T02:16:27;99982.72;;;12.38;66.55
66385;BME280;53426;55.872;37.462;2023-05-19T02:18:54;99976.97;;;12.33;66.46
66385;BME280;53426;55.872;37.462;2023-05-19T02:21:20;99976.56;;;12.37;67.00
66385;BME280;53426;55.872;37.462;2023-05-19T02:23:47;99984.84;;;12.44;66.84
66385;BME280;53426;55.872;37.462;2023-05-19T02:26:13;99983.94;;;12.34;67.24
66385;BME280;53426;55.872;37.462;2023-05-19T02:28:39;99987.81;;;12.30;67.77
66385;BME280;53426;55.872;37.462;2023-05-19T02:31:05;99978.81;;;12.21;68.49
66385;BME280;53426;55.872;37.462;2023-05-19T02:33:34;99983.53;;;12.18;68.76
66385;BME280;53426;55.872;37.462;2023-05-19T02:36:01;99989.75;;;12.07;69.02
66385;BME280;53426;55.872;37.462;2023-05-19T02:38:27;99988.19;;;12.04;69.17
66385;BME280;53426;55.872;37.462;2023-05-19T02:40:53;99983.72;;;12.05;70.10
66385;BME280;53426;55.872;37.462;2023-05-19T02:43:19;99980.28;;;11.93;69.77
66385;BME280;53426;55.872;37.462;2023-05-19T02:45:46;99981.47;;;11.89;69.47
66385;BME280;53426;55.872;37.462;2023-05-19T02:48:11;99987.63;;;11.90;70.18
66385;BME280;53426;55.872;37.462;2023-05-19T02:50:37;99986.94;;;11.88;70.35
66385;BME280;53426;55.872;37.462;2023-05-19T02:53:04;99997.88;;;11.94;71.08
66385;BME280;53426;55.872;37.462;2023-05-19T02:55:30;99994.06;;;11.87;71.25
66385;BME280;53426;55.872;37.462;2023-05-19T02:57:55;100001.03;;;11.88;70.81
66385;BME280;53426;55.872;37.462;2023-05-19T03:00:21;99992.63;;;11.83;70.94
66385;BME280;53426;55.872;37.462;2023-05-19T03:02:48;100002.25;;;11.84;71.20
66385;BME280;53426;55.872;37.462;2023-05-19T03:05:14;99975.63;;;11.63;72.01
66385;BME280;53426;55.872;37.462;2023-05-19T03:07:40;100007.69;;;11.83;72.05
66385;BME280;53426;55.872;37.462;2023-05-19T03:10:07;99998.44;;;11.77;71.75
66385;BME280;53426;55.872;37.462;2023-05-19T03:12:33;100013.22;;;11.80;71.91
66385;BME280;53426;55.872;37.462;2023-05-19T03:14:59;100013.09;;;11.92;71.90
66385;BME280;53426;55.872;37.462;2023-05-19T03:17:25;100017.44;;;11.93;72.08
66385;BME280;53426;55.872;37.462;2023-05-19T03:19:53;100008.00;;;11.89;72.26
66385;BME280;53426;55.872;37.462;2023-05-19T03:22:19;100008.97;;;11.99;72.41
66385;BME280;53426;55.872;37.462;2023-05-19T03:24:46;100019.81;;;11.96;72.58
66385;BME280;53426;55.872;37.462;2023-05-19T03:27:14;100015.25;;;11.98;72.72
66385;BME280;53426;55.872;37.462;2023-05-19T03:29:41;100020.47;;;11.89;71.79
66385;BME280;53426;55.872;37.462;2023-05-19T03:32:07;100019.28;;;11.82;72.62
66385;BME280;53426;55.872;37.462;2023-05-19T03:34:33;100031.06;;;11.89;73.90
66385;BME280;53426;55.872;37.462;2023-05-19T03:37:00;100021.56;;;11.75;73.04
66385;BME280;53426;55.872;37.462;2023-05-19T03:39:26;100029.50;;;11.86;73.18
66385;BME280;53426;55.872;37.462;2023-05-19T03:41:52;100036.97;;;11.92;73.26
66385;BME280;53426;55.872;37.462;2023-05-19T03:44:18;100040.09;;;11.97;73.71
66385;BME280;53426;55.872;37.462;2023-05-19T03:46:44;100037.16;;;12.00;73.41
66385;BME280;53426;55.872;37.462;2023-05-19T03:49:15;100039.34;;;11.95;73.13
66385;BME280;53426;55.872;37.462;2023-05-19T03:51:59;100040.84;;;11.88;73.14
66385;BME280;53426;55.872;37.462;2023-05-19T03:54:36;100036.88;;;11.83;73.77
66385;BME280;53426;55.872;37.462;2023-05-19T03:57:04;100044.53;;;11.97;73.80
66385;BME280;53426;55.872;37.462;2023-05-19T03:59:30;100039.31;;;12.06;73.45
66385;BME280;53426;55.872;37.462;2023-05-19T04:01:56;100041.47;;;12.12;73.32
66385;BME280;53426;55.872;37.462;2023-05-19T04:04:25;100036.22;;;12.01;73.40
66385;BME280;53426;55.872;37.462;2023-05-19T04:06:51;100047.75;;;12.11;72.76
66385;BME280;53426;55.872;37.462;2023-05-19T04:09:17;100046.09;;;12.10;73.84
66385;BME280;53426;55.872;37.462;2023-05-19T04:11:43;100028.59;;;12.08;73.93
66385;BME280;53426;55.872;37.462;2023-05-19T04:14:10;100046.78;;;12.12;74.32
66385;BME280;53426;55.872;37.462;2023-05-19T04:16:36;100051.97;;;12.14;74.27
66385;BME280;53426;55.872;37.462;2023-05-19T04:19:03;100056.06;;;12.18;73.94
66385;BME280;53426;55.872;37.462;2023-05-19T04:21:29;100054.19;;;12.30;72.98
66385;BME280;53426;55.872;37.462;2023-05-19T04:23:55;100050.03;;;12.48;73.54
66385;BME280;53426;55.872;37.462;2023-05-19T04:26:25;100044.97;;;12.45;72.93
66385;BME280;53426;55.872;37.462;2023-05-19T04:28:51;100064.28;;;12.47;72.02
66385;BME280;53426;55.872;37.462;2023-05-19T04:31:19;100056.81;;;12.41;72.40
66385;BME280;53426;55.872;37.462;2023-05-19T04:33:46;100060.88;;;12.45;72.77
66385;BME280;53426;55.872;37.462;2023-05-19T04:36:12;100064.28;;;12.47;72.48
66385;BME280;53426;55.872;37.462;2023-05-19T04:38:40;100054.72;;;12.44;72.82
66385;BME280;53426;55.872;37.462;2023-05-19T04:41:08;100053.06;;;12.43;73.48
66385;BME280;53426;55.872;37.462;2023-05-19T04:43:38;100037.75;;;12.36;72.33
66385;BME280;53426;55.872;37.462;2023-05-19T04:46:13;100056.38;;;12.56;72.44
66385;BME280;53426;55.872;37.462;2023-05-19T04:48:42;100065.06;;;12.58;72.81
66385;BME280;53426;55.872;37.462;2023-05-19T04:51:08;100061.94;;;12.53;73.06
66385;BME280;53426;55.872;37.462;2023-05-19T04:53:34;100062.00;;;12.63;72.30
66385;BME280;53426;55.872;37.462;2023-05-19T04:56:04;100051.63;;;12.60;72.14
66385;BME280;53426;55.872;37.462;2023-05-19T04:58:31;100061.16;;;12.63;72.40
66385;BME280;53426;55.872;37.462;2023-05-19T05:00:57;100054.94;;;12.52;72.24
66385;BME280;53426;55.872;37.462;2023-05-19T05:03:23;100065.91;;;12.59;72.71
66385;BME280;53426;55.872;37.462;2023-05-19T05:05:53;100062.66;;;12.55;71.59
66385;BME280;53426;55.872;37.462;2023-05-19T05:08:19;100052.03;;;12.55;72.39
66385;BME280;53426;55.872;37.462;2023-05-19T05:10:50;100061.44;;;12.60;72.17
66385;BME280;53426;55.872;37.462;2023-05-19T05:13:21;100071.63;;;12.54;72.47
66385;BME280;53426;55.872;37.462;2023-05-19T05:15:48;100071.84;;;12.51;72.20
66385;BME280;53426;55.872;37.462;2023-05-19T05:18:14;100065.13;;;12.47;72.64
66385;BME280;53426;55.872;37.462;2023-05-19T05:20:42;100071.13;;;12.49;72.57
66385;BME280;53426;55.872;37.462;2023-05-19T05:23:10;100045.00;;;12.34;72.80
66385;BME280;53426;55.872;37.462;2023-05-19T05:25:43;100077.28;;;12.50;72.71
66385;BME280;53426;55.872;37.462;2023-05-19T05:28:10;100073.41;;;12.54;72.62
66385;BME280;53426;55.872;37.462;2023-05-19T05:30:37;100072.25;;;12.47;72.82
66385;BME280;53426;55.872;37.462;2023-05-19T05:33:06;100067.72;;;12.58;72.34
66385;BME280;53426;55.872;37.462;2023-05-19T05:35:36;100068.97;;;12.75;71.73
66385;BME280;53426;55.872;37.462;2023-05-19T05:38:03;100072.56;;;12.95;72.29
66385;BME280;53426;55.872;37.462;2023-05-19T05:40:29;100080.56;;;13.16;72.07
66385;BME280;53426;55.872;37.462;2023-05-19T05:42:55;100083.66;;;13.21;70.81
66385;BME280;53426;55.872;37.462;2023-05-19T05:45:26;100088.84;;;13.22;70.95
66385;BME280;53426;55.872;37.462;2023-05-19T05:47:56;100083.66;;;13.21;70.50
66385;BME280;53426;55.872;37.462;2023-05-19T05:50:23;100080.19;;;13.09;70.34
66385;BME280;53426;55.872;37.462;2023-05-19T05:52:51;100084.06;;;13.16;70.20
66385;BME280;53426;55.872;37.462;2023-05-19T05:55:18;100094.56;;;13.18;70.51
66385;BME280;53426;55.872;37.462;2023-05-19T05:57:47;100096.16;;;13.09;71.09
66385;BME280;53426;55.872;37.462;2023-05-19T06:00:15;100087.34;;;12.88;71.22
66385;BME280;53426;55.872;37.462;2023-05-19T06:02:45;100092.41;;;12.91;71.87
66385;BME280;53426;55.872;37.462;2023-05-19T06:05:13;100098.81;;;12.88;71.65
66385;BME280;53426;55.872;37.462;2023-05-19T06:07:40;100103.63;;;12.94;71.86
66385;BME280;53426;55.872;37.462;2023-05-19T06:10:08;100102.59;;;13.07;70.77
66385;BME280;53426;55.872;37.462;2023-05-19T06:12:35;100102.09;;;13.13;70.17
66385;BME280;53426;55.872;37.462;2023-05-19T06:15:05;100092.63;;;13.20;70.78
66385;BME280;53426;55.872;37.462;2023-05-19T06:17:34;100074.22;;;13.37;70.66
66385;BME280;53426;55.872;37.462;2023-05-19T06:20:01;100088.72;;;13.64;69.62
66385;BME280;53426;55.872;37.462;2023-05-19T06:22:28;100089.66;;;13.93;68.47
66385;BME280;53426;55.872;37.462;2023-05-19T06:24:54;100083.38;;;14.13;67.35
66385;BME280;53426;55.872;37.462;2023-05-19T06:27:20;100082.03;;;14.29;65.99
66385;BME280;53426;55.872;37.462;2023-05-19T06:29:46;100077.56;;;14.39;65.45
66385;BME280;53426;55.872;37.462;2023-05-19T06:32:12;100086.25;;;14.60;65.74
66385;BME280;53426;55.872;37.462;2023-05-19T06:34:38;100087.50;;;14.46;65.23
66385;BME280;53426;55.872;37.462;2023-05-19T06:37:05;100084.84;;;14.46;64.55
66385;BME280;53426;55.872;37.462;2023-05-19T06:39:32;100092.72;;;14.67;64.80
66385;BME280;53426;55.872;37.462;2023-05-19T06:41:59;100099.97;;;14.84;63.42
66385;BME280;53426;55.872;37.462;2023-05-19T06:44:44;100079.06;;;14.99;63.56
66385;BME280;53426;55.872;37.462;2023-05-19T06:47:11;100093.28;;;15.36;63.55
66385;BME280;53426;55.872;37.462;2023-05-19T06:49:37;100099.66;;;15.16;62.01
66385;BME280;53426;55.872;37.462;2023-05-19T06:52:03;100087.59;;;15.02;61.03
66385;BME280;53426;55.872;37.462;2023-05-19T06:54:30;100111.19;;;14.97;60.54
66385;BME280;53426;55.872;37.462;2023-05-19T06:56:56;100099.53;;;15.08;60.20
66385;BME280;53426;55.872;37.462;2023-05-19T06:59:23;100105.78;;;15.36;59.00
66385;BME280;53426;55.872;37.462;2023-05-19T07:01:49;100094.22;;;15.55;58.36
66385;BME280;53426;55.872;37.462;2023-05-19T07:04:16;100106.56;;;15.83;57.96
66385;BME280;53426;55.872;37.462;2023-05-19T07:09:38;100117.66;;;15.88;55.63
66385;BME280;53426;55.872;37.462;2023-05-19T07:12:05;100104.41;;;15.96;55.19
66385;BME280;53426;55.872;37.462;2023-05-19T07:14:34;100109.34;;;16.18;54.32
66385;BME280;53426;55.872;37.462;2023-05-19T07:17:01;100114.00;;;16.34;53.79
66385;BME280;53426;55.872;37.462;2023-05-19T07:19:27;100106.56;;;16.10;53.49
66385;BME280;53426;55.872;37.462;2023-05-19T07:21:53;100117.53;;;16.35;54.00
66385;BME280;53426;55.872;37.462;2023-05-19T07:24:20;100106.59;;;16.46;51.80
66385;BME280;53426;55.872;37.462;2023-05-19T07:26:46;100115.69;;;16.88;50.15
66385;BME280;53426;55.872;37.462;2023-05-19T07:29:12;100120.78;;;17.17;47.09
66385;BME280;53426;55.872;37.462;2023-05-19T07:31:38;100115.66;;;17.57;45.54
66385;BME280;53426;55.872;37.462;2023-05-19T07:34:04;100118.13;;;18.19;43.95
66385;BME280;53426;55.872;37.462;2023-05-19T07:36:30;100105.50;;;18.86;41.39
66385;BME280;53426;55.872;37.462;2023-05-19T07:38:58;100114.00;;;19.46;39.72
66385;BME280;53426;55.872;37.462;2023-05-19T07:41:24;100109.94;;;20.36;37.03
66385;BME280;53426;55.872;37.462;2023-05-19T07:43:51;100126.06;;;21.27;35.21
66385;BME280;53426;55.872;37.462;2023-05-19T07:46:18;100118.56;;;21.52;35.16
66385;BME280;53426;55.872;37.462;2023-05-19T07:48:44;100130.72;;;21.62;33.35
66385;BME280;53426;55.872;37.462;2023-05-19T07:51:11;100120.25;;;21.53;31.74
66385;BME280;53426;55.872;37.462;2023-05-19T07:53:37;100122.28;;;21.36;32.38
66385;BME280;53426;55.872;37.462;2023-05-19T07:56:03;100118.72;;;21.36;31.61
66385;BME280;53426;55.872;37.462;2023-05-19T07:58:29;100119.22;;;21.68;32.91
66385;BME280;53426;55.872;37.462;2023-05-19T08:00:57;100125.97;;;21.94;32.31
66385;BME280;53426;55.872;37.462;2023-05-19T08:03:24;100121.81;;;22.06;31.34
66385;BME280;53426;55.872;37.462;2023-05-19T08:05:50;100111.47;;;22.09;30.12
66385;BME280;53426;55.872;37.462;2023-05-19T08:08:16;100104.50;;;22.51;29.57
66385;BME280;53426;55.872;37.462;2023-05-19T08:10:45;100107.88;;;22.38;29.84
66385;BME280;53426;55.872;37.462;2023-05-19T08:13:11;100093.78;;;22.22;30.30
66385;BME280;53426;55.872;37.462;2023-05-19T08:15:37;100122.47;;;22.80;30.42
66385;BME280;53426;55.872;37.462;2023-05-19T08:18:03;100120.88;;;23.69;28.71
66385;BME280;53426;55.872;37.462;2023-05-19T08:20:30;100110.59;;;24.46;28.01
66385;BME280;53426;55.872;37.462;2023-05-19T08:22:56;100106.94;;;25.00;27.21
66385;BME280;53426;55.872;37.462;2023-05-19T08:25:23;100117.59;;;25.02;26.38
66385;BME280;53426;55.872;37.462;2023-05-19T08:27:49;100110.91;;;25.11;26.27
66385;BME280;53426;55.872;37.462;2023-05-19T08:30:15;100111.72;;;25.51;25.91
66385;BME280;53426;55.872;37.462;2023-05-19T08:32:41;100117.47;;;25.94;25.60
66385;BME280;53426;55.872;37.462;2023-05-19T08:35:07;100111.69;;;25.70;25.88
66385;BME280;53426;55.872;37.462;2023-05-19T08:37:33;100112.50;;;25.84;25.06
66385;BME280;53426;55.872;37.462;2023-05-19T08:40:02;100109.19;;;26.33;24.52
66385;BME280;53426;55.872;37.462;2023-05-19T08:42:31;100128.34;;;25.80;24.60
66385;BME280;53426;55.872;37.462;2023-05-19T08:44:59;100113.78;;;25.68;25.57
66385;BME280;53426;55.872;37.462;2023-05-19T08:47:27;100105.97;;;26.43;24.56
66385;BME280;53426;55.872;37.462;2023-05-19T08:50:02;100116.88;;;27.05;24.19
66385;BME280;53426;55.872;37.462;2023-05-19T08:55:08;100091.28;;;26.88;23.84
66385;BME280;53426;55.872;37.462;2023-05-19T08:57:37;100100.50;;;27.55;22.87
66385;BME280;53426;55.872;37.462;2023-05-19T09:00:05;100091.16;;;27.51;22.58
66385;BME280;53426;55.872;37.462;2023-05-19T09:02:37;100100.22;;;28.18;23.00
66385;BME280;53426;55.872;37.462;2023-05-19T09:05:04;100080.72;;;29.04;21.27
66385;BME280;53426;55.872;37.462;2023-05-19T09:07:30;100092.25;;;29.18;21.19
66385;BME280;53426;55.872;37.462;2023-05-19T09:10:00;100088.22;;;29.43;21.12
66385;BME280;53426;55.872;37.462;2023-05-19T09:12:27;100097.06;;;29.04;21.56
66385;BME280;53426;55.872;37.462;2023-05-19T09:14:53;100080.94;;;28.49;21.27
66385;BME280;53426;55.872;37.462;2023-05-19T09:17:19;100084.31;;;28.63;22.07
66385;BME280;53426;55.872;37.462;2023-05-19T09:19:45;100081.31;;;29.06;21.34
66385;BME280;53426;55.872;37.462;2023-05-19T09:22:17;100072.22;;;29.24;21.60
66385;BME280;53426;55.872;37.462;2023-05-19T09:24:46;100079.41;;;28.95;20.94
66385;BME280;53426;55.872;37.462;2023-05-19T09:27:14;100075.03;;;28.52;21.94
66385;BME280;53426;55.872;37.462;2023-05-19T09:29:41;100065.28;;;28.15;21.53
66385;BME280;53426;55.872;37.462;2023-05-19T09:32:07;100066.06;;;28.63;21.36
66385;BME280;53426;55.872;37.462;2023-05-19T09:34:33;100074.94;;;29.47;21.15
66385;BME280;53426;55.872;37.462;2023-05-19T09:36:59;100071.03;;;30.06;19.72
66385;BME280;53426;55.872;37.462;2023-05-19T09:39:25;100069.22;;;30.12;19.15
66385;BME280;53426;55.872;37.462;2023-05-19T09:41:54;100073.63;;;30.13;19.13
66385;BME280;53426;55.872;37.462;2023-05-19T09:44:21;100072.88;;;28.54;20.21
66385;BME280;53426;55.872;37.462;2023-05-19T09:46:50;100059.88;;;28.26;20.30
66385;BME280;53426;55.872;37.462;2023-05-19T09:49:20;100070.28;;;28.59;20.60
66385;BME280;53426;55.872;37.462;2023-05-19T09:51:59;100070.56;;;28.10;21.17
66385;BME280;53426;55.872;37.462;2023-05-19T09:54:26;100068.38;;;28.48;20.88
66385;BME280;53426;55.872;37.462;2023-05-19T09:57:02;100068.41;;;28.60;21.39
66385;BME280;53426;55.872;37.462;2023-05-19T09:59:30;100068.00;;;28.45;20.23
66385;BME280;53426;55.872;37.462;2023-05-19T10:01:58;100063.34;;;28.04;20.32
66385;BME280;53426;55.872;37.462;2023-05-19T10:04:28;100046.19;;;27.67;21.29
66385;BME280;53426;55.872;37.462;2023-05-19T10:06:56;100064.31;;;28.09;20.39
66385;BME280;53426;55.872;37.462;2023-05-19T10:09:26;100048.13;;;27.96;21.16
66385;BME280;53426;55.872;37.462;2023-05-19T10:11:54;100060.75;;;28.09;20.47
66385;BME280;53426;55.872;37.462;2023-05-19T10:14:25;100045.59;;;27.65;21.24
66385;BME280;53426;55.872;37.462;2023-05-19T10:16:53;100060.69;;;26.99;21.56
66385;BME280;53426;55.872;37.462;2023-05-19T10:19:21;100043.97;;;26.40;21.88
66385;BME280;53426;55.872;37.462;2023-05-19T10:21:47;100059.81;;;25.98;23.41
66385;BME280;53426;55.872;37.462;2023-05-19T10:24:14;100045.75;;;25.70;23.45
66385;BME280;53426;55.872;37.462;2023-05-19T10:26:43;100053.66;;;25.85;23.64
66385;BME280;53426;55.872;37.462;2023-05-19T10:29:11;100051.25;;;25.57;23.33
66385;BME280;53426;55.872;37.462;2023-05-19T10:31:39;100051.69;;;25.27;23.31
66385;BME280;53426;55.872;37.462;2023-05-19T10:36:44;100059.00;;;24.54;25.04
66385;BME280;53426;55.872;37.462;2023-05-19T10:39:16;100045.63;;;24.46;24.71
66385;BME280;53426;55.872;37.462;2023-05-19T10:44:25;100059.47;;;24.17;24.93
66385;BME280;53426;55.872;37.462;2023-05-19T10:46:55;100051.47;;;23.83;25.69
66385;BME280;53426;55.872;37.462;2023-05-19T10:49:21;100057.34;;;23.93;25.53
66385;BME280;53426;55.872;37.462;2023-05-19T10:51:48;100064.09;;;23.34;26.25
66385;BME280;53426;55.872;37.462;2023-05-19T10:54:17;100073.03;;;23.07;26.75
66385;BME280;53426;55.872;37.462;2023-05-19T10:57:03;100067.72;;;22.92;26.52
66385;BME280;53426;55.872;37.462;2023-05-19T10:59:30;100065.09;;;22.57;26.60
66385;BME280;53426;55.872;37.462;2023-05-19T11:02:06;100075.06;;;22.56;27.44
66385;BME280;53426;55.872;37.462;2023-05-19T11:04:48;100069.59;;;22.49;27.32
66385;BME280;53426;55.872;37.462;2023-05-19T11:07:20;100068.13;;;22.68;26.76
66385;BME280;53426;55.872;37.462;2023-05-19T11:09:56;100047.41;;;22.33;27.29
66385;BME280;53426;55.872;37.462;2023-05-19T11:12:22;100054.97;;;22.01;27.24
66385;BME280;53426;55.872;37.462;2023-05-19T11:14:53;100043.63;;;21.91;26.67
66385;BME280;53426;55.872;37.462;2023-05-19T11:17:19;100056.16;;;21.99;26.73
66385;BME280;53426;55.872;37.462;2023-05-19T11:19:53;100065.59;;;21.74;28.63
66385;BME280;53426;55.872;37.462;2023-05-19T11:22:25;100046.19;;;21.49;27.84
66385;BME280;53426;55.872;37.462;2023-05-19T11:24:55;100057.59;;;21.51;28.00
66385;BME280;53426;55.872;37.462;2023-05-19T11:27:31;100060.38;;;21.57;27.51
66385;BME280;53426;55.872;37.462;2023-05-19T11:30:00;100081.75;;;21.29;26.10
66385;BME280;53426;55.872;37.462;2023-05-19T11:32:33;100078.41;;;21.27;26.44
66385;BME280;53426;55.872;37.462;2023-05-19T11:35:01;100067.38;;;21.37;26.84
66385;BME280;53426;55.872;37.462;2023-05-19T11:37:32;100075.84;;;21.49;26.47
66385;BME280;53426;55.872;37.462;2023-05-19T11:40:04;100068.28;;;21.44;26.31
66385;BME280;53426;55.872;37.462;2023-05-19T11:42:34;100068.94;;;21.32;25.74
66385;BME280;53426;55.872;37.462;2023-05-19T11:45:03;100055.56;;;21.23;25.94
66385;BME280;53426;55.872;37.462;2023-05-19T11:47:33;100070.06;;;21.37;26.13
66385;BME280;53426;55.872;37.462;2023-05-19T11:50:00;100067.47;;;21.06;26.38
66385;BME280;53426;55.872;37.462;2023-05-19T11:52:26;100059.94;;;20.87;26.18
66385;BME280;53426;55.872;37.462;2023-05-19T11:54:53;100075.97;;;20.80;27.32
66385;BME280;53426;55.872;37.462;2023-05-19T11:57:19;100072.03;;;20.68;27.13
66385;BME280;53426;55.872;37.462;2023-05-19T11:59:47;100072.16;;;20.75;26.72
66385;BME280;53426;55.872;37.462;2023-05-19T12:04:42;100066.03;;;20.81;27.84
66385;BME280;53426;55.872;37.462;2023-05-19T12:07:10;100065.38;;;20.79;27.37
66385;BME280;53426;55.872;37.462;2023-05-19T12:09:36;100068.69;;;20.89;27.79
66385;BME280;53426;55.872;37.462;2023-05-19T12:12:03;100062.81;;;20.85;28.08
66385;BME280;53426;55.872;37.462;2023-05-19T12:14:29;100067.78;;;20.74;27.86
66385;BME280;53426;55.872;37.462;2023-05-19T12:16:56;100076.34;;;20.55;28.26
66385;BME280;53426;55.872;37.462;2023-05-19T12:19:22;100051.13;;;20.33;28.82
66385;BME280;53426;55.872;37.462;2023-05-19T12:21:53;100074.75;;;20.45;30.11
66385;BME280;53426;55.872;37.462;2023-05-19T12:24:20;100088.91;;;20.39;28.65
66385;BME280;53426;55.872;37.462;2023-05-19T12:26:47;100080.34;;;20.36;28.93
66385;BME280;53426;55.872;37.462;2023-05-19T12:29:16;100084.91;;;20.27;28.14
66385;BME280;53426;55.872;37.462;2023-05-19T12:31:45;100075.41;;;20.17;27.99
66385;BME280;53426;55.872;37.462;2023-05-19T12:34:11;100070.44;;;20.05;27.37
66385;BME280;53426;55.872;37.462;2023-05-19T12:36:37;100071.31;;;19.98;27.27
66385;BME280;53426;55.872;37.462;2023-05-19T12:39:05;100078.34;;;19.99;27.37
66385;BME280;53426;55.872;37.462;2023-05-19T12:41:33;100082.03;;;20.06;28.35
66385;BME280;53426;55.872;37.462;2023-05-19T12:43:59;100090.25;;;20.04;27.92
66385;BME280;53426;55.872;37.462;2023-05-19T12:46:24;100092.81;;;19.98;27.45
66385;BME280;53426;55.872;37.462;2023-05-19T12:48:50;100077.19;;;20.01;27.47
66385;BME280;53426;55.872;37.462;2023-05-19T12:51:17;100085.44;;;19.92;28.57
66385;BME280;53426;55.872;37.462;2023-05-19T12:53:44;100080.06;;;19.92;28.49
66385;BME280;53426;55.872;37.462;2023-05-19T12:56:14;100090.81;;;19.92;28.53
66385;BME280;53426;55.872;37.462;2023-05-19T12:58:40;100084.50;;;19.85;29.28
66385;BME280;53426;55.872;37.462;2023-05-19T13:01:14;100079.31;;;19.75;28.75
66385;BME280;53426;55.872;37.462;2023-05-19T13:03:41;100084.63;;;19.52;30.18
66385;BME280;53426;55.872;37.462;2023-05-19T13:06:08;100081.06;;;19.44;29.45
66385;BME280;53426;55.872;37.462;2023-05-19T13:08:36;100070.69;;;19.41;29.43
66385;BME280;53426;55.872;37.462;2023-05-19T13:11:03;100081.09;;;19.36;29.40
66385;BME280;53426;55.872;37.462;2023-05-19T13:13:29;100060.28;;;19.46;30.20